Terminal Aerodrome Forecast
Issued by NWS New Orleans/Baton Rouge, LA

Home | Current Version | Previous Version | Text Only | Print | Product List | Glossary On
Versions: 1 2 3 4 5 6 7 8 9 10 11 12 13 14 15 16
000
FTUS44 KLIX 181900 AAA
TAFBTR
TAF AMD
KBTR 181927Z 1819/1918 13005KT P6SM BKN020 BKN050 OVC070
     FM182300 09005KT P6SM OVC030 PROB30 1906/1912 3SM SHRA OVC015
     FM191200 08006KT 4SM RA BR SCT007 OVC015
      TEMPO 1914/1918 1SM SHRA OVC007=

USA.gov is the U.S. government's official web portal to all federal, state and local government web resources and services.